createdAt,value
2022-12-11T00:00:56.951Z,81.93
2022-12-11T00:02:29.638Z,74.22
2022-12-11T00:04:01.650Z,92.97
2022-12-11T00:05:33.961Z,87.78
2022-12-11T00:07:06.052Z,76.50
2022-12-11T00:08:38.253Z,120.07
2022-12-11T00:10:10.312Z,107.10
2022-12-11T00:11:42.222Z,98.72
2022-12-11T00:13:14.178Z,102.18
2022-12-11T00:14:46.120Z,114.60
2022-12-11T00:16:20.385Z,108.45
2022-12-11T00:17:56.015Z,92.22
2022-12-11T00:19:28.113Z,103.68
2022-12-11T00:21:05.340Z,138.38
2022-12-11T00:22:37.404Z,77.78
2022-12-11T00:24:09.497Z,166.10
2022-12-11T00:25:46.194Z,127.18
2022-12-11T00:27:18.123Z,91.97
2022-12-11T00:28:54.181Z,104.20
2022-12-11T00:30:26.213Z,94.18
2022-12-11T00:31:58.239Z,80.50
2022-12-11T00:33:30.239Z,104.55
2022-12-11T00:35:02.325Z,122.07
2022-12-11T00:36:34.616Z,87.60
2022-12-11T00:38:06.721Z,130.95
2022-12-11T00:39:40.167Z,101.88
2022-12-11T00:41:12.772Z,114.70
2022-12-11T00:42:44.709Z,105.13
2022-12-11T00:44:16.721Z,106.38
2022-12-11T00:45:49.093Z,84.13
2022-12-11T00:47:21.143Z,113.07
2022-12-11T00:48:53.870Z,104.70
2022-12-11T00:50:25.969Z,104.72
2022-12-11T00:51:58.031Z,128.18
2022-12-11T00:53:30.128Z,84.22
2022-12-11T00:55:02.136Z,93.60
2022-12-11T00:56:35.155Z,98.78
2022-12-11T00:58:07.466Z,102.22
2022-12-11T00:59:39.766Z,104.38
2022-12-11T01:01:15.055Z,68.63
2022-12-11T01:02:47.111Z,84.32
2022-12-11T01:04:19.598Z,87.15
2022-12-11T01:05:56.304Z,101.15
2022-12-11T01:07:28.257Z,132.38
2022-12-11T01:09:18.796Z,69.05
2022-12-11T01:10:50.800Z,78.93
2022-12-11T01:12:25.142Z,71.85
2022-12-11T01:13:57.182Z,80.38
2022-12-11T01:15:41.773Z,67.28
2022-12-11T01:17:14.102Z,61.13
2022-12-11T01:18:46.061Z,68.78
2022-12-11T01:20:19.639Z,103.63
2022-12-11T01:21:51.618Z,57.03
2022-12-11T01:23:23.583Z,62.92
2022-12-11T01:24:55.561Z,63.72
2022-12-11T01:26:27.594Z,81.95
2022-12-11T01:27:59.916Z,89.25
2022-12-11T01:29:32.795Z,62.53
2022-12-11T01:31:12.925Z,70.93
2022-12-11T01:32:45.019Z,59.25
2022-12-11T01:34:17.004Z,85.43
2022-12-11T01:35:49.013Z,84.88
2022-12-11T01:37:24.228Z,69.30
2022-12-11T01:38:56.753Z,60.45
2022-12-11T01:40:28.710Z,57.20
2022-12-11T01:42:01.553Z,55.13
2022-12-11T01:43:33.586Z,53.88
2022-12-11T01:45:35.654Z,51.45
2022-12-11T01:47:08.102Z,48.15
2022-12-11T01:48:42.572Z,66.57
2022-12-11T01:50:14.855Z,55.17
2022-12-11T01:51:57.740Z,49.65
2022-12-11T01:53:35.911Z,45.83
2022-12-11T01:55:10.044Z,72.40
2022-12-11T01:56:44.271Z,52.53
2022-12-11T01:58:17.286Z,61.47
2022-12-11T01:59:49.325Z,52.17
2022-12-11T02:01:27.435Z,47.63
2022-12-11T02:02:59.475Z,60.08
2022-12-11T02:04:32.626Z,72.07
2022-12-11T02:06:05.054Z,52.78
2022-12-11T02:07:47.342Z,47.85
2022-12-11T02:09:25.357Z,48.15
2022-12-11T02:11:16.366Z,52.58
2022-12-11T02:12:55.076Z,50.90
2022-12-11T02:14:48.447Z,38.47
2022-12-11T02:16:32.499Z,47.55
2022-12-11T02:18:34.366Z,48.13
2022-12-11T02:20:22.470Z,41.15
2022-12-11T02:21:55.318Z,35.30
2022-12-11T02:23:48.576Z,44.28
2022-12-11T02:25:37.656Z,45.13
2022-12-11T02:27:35.691Z,42.08
2022-12-11T02:29:09.641Z,43.83
2022-12-11T02:30:43.187Z,44.58
2022-12-11T02:32:24.098Z,43.63
2022-12-11T02:34:05.861Z,53.85
2022-12-11T02:35:41.632Z,50.97
2022-12-11T02:37:19.165Z,49.58
2022-12-11T02:38:52.905Z,57.55
2022-12-11T02:40:27.457Z,47.92
2022-12-11T02:42:00.111Z,47.70
2022-12-11T02:43:33.081Z,49.50
2022-12-11T02:45:06.529Z,55.70
2022-12-11T02:48:11.571Z,43.03
2022-12-11T02:51:17.611Z,32.63
2022-12-11T02:52:51.453Z,37.00
2022-12-11T02:54:28.213Z,39.55
2022-12-11T02:56:13.841Z,33.40
2022-12-11T02:57:59.010Z,36.30
2022-12-11T02:59:39.628Z,38.30
2022-12-11T03:01:11.779Z,31.98
2022-12-11T03:02:44.508Z,33.47
2022-12-11T03:04:16.692Z,33.33
2022-12-11T03:05:51.390Z,35.42
2022-12-11T03:07:26.155Z,31.95
2022-12-11T03:08:58.172Z,30.73
2022-12-11T03:10:30.442Z,29.45
2022-12-11T03:12:02.516Z,30.50
2022-12-11T03:13:34.579Z,32.50
2022-12-11T03:15:14.085Z,32.20
2022-12-11T03:16:57.444Z,31.48
2022-12-11T03:18:44.407Z,33.08
2022-12-11T03:20:19.274Z,29.80
2022-12-11T03:21:59.172Z,34.00
2022-12-11T03:23:36.290Z,33.83
2022-12-11T03:25:13.631Z,30.38
2022-12-11T03:26:56.185Z,31.55
2022-12-11T03:28:54.866Z,32.45
2022-12-11T03:30:29.467Z,31.27
2022-12-11T03:32:29.197Z,30.67
2022-12-11T03:34:04.055Z,30.58
2022-12-11T03:35:40.630Z,27.75
2022-12-11T03:37:13.907Z,28.65
2022-12-11T03:39:00.661Z,32.65
2022-12-11T03:40:34.287Z,27.92
2022-12-11T03:42:08.886Z,31.83
2022-12-11T03:43:41.154Z,28.45
2022-12-11T03:45:13.859Z,31.40
2022-12-11T03:46:46.799Z,32.63
2022-12-11T03:48:19.506Z,29.33
2022-12-11T03:49:52.627Z,27.83
2022-12-11T03:51:25.085Z,32.00
2022-12-11T03:52:57.376Z,29.92
2022-12-11T03:54:29.815Z,31.15
2022-12-11T03:56:03.461Z,32.65
2022-12-11T03:57:37.063Z,28.20
2022-12-11T04:00:41.217Z,40.75
2022-12-11T04:02:13.253Z,34.25
2022-12-11T04:03:45.339Z,28.48
2022-12-11T04:05:17.321Z,30.15
2022-12-11T04:06:49.310Z,28.10
2022-12-11T04:08:25.082Z,33.03
2022-12-11T04:09:57.300Z,31.30
2022-12-11T04:11:34.935Z,32.67
2022-12-11T04:13:07.553Z,35.35
2022-12-11T04:14:58.131Z,29.90
2022-12-11T04:16:30.096Z,28.33
2022-12-11T04:18:20.313Z,28.80
2022-12-11T04:20:10.904Z,27.05
2022-12-11T04:22:01.545Z,27.98
2022-12-11T04:23:52.255Z,23.77
2022-12-11T04:25:24.295Z,25.88
2022-12-11T04:26:56.226Z,27.88
2022-12-11T04:28:28.206Z,28.20
2022-12-11T04:30:00.205Z,28.65
2022-12-11T04:31:32.498Z,28.45
2022-12-11T04:33:04.643Z,26.90
2022-12-11T04:34:36.678Z,25.40
2022-12-11T04:36:09.952Z,22.88
2022-12-11T04:37:42.677Z,28.92
2022-12-11T04:39:14.662Z,26.77
2022-12-11T04:40:46.601Z,27.00
2022-12-11T04:42:18.693Z,25.35
2022-12-11T04:43:50.787Z,25.55
2022-12-11T04:45:22.882Z,26.55
2022-12-11T04:46:55.251Z,27.58
2022-12-11T04:48:27.362Z,28.27
2022-12-11T04:49:59.443Z,31.08
2022-12-11T04:51:31.448Z,33.78
2022-12-11T04:53:03.489Z,26.45
2022-12-11T04:54:35.516Z,25.38
2022-12-11T04:56:13.603Z,24.15
2022-12-11T04:57:45.610Z,25.10
2022-12-11T04:59:17.819Z,24.38
2022-12-11T05:00:49.872Z,24.73
2022-12-11T05:02:21.931Z,21.58
2022-12-11T05:03:54.064Z,19.17
2022-12-11T05:05:26.098Z,19.23
2022-12-11T05:06:58.087Z,17.02
2022-12-11T05:08:30.127Z,21.92
2022-12-11T05:10:02.350Z,22.23
2022-12-11T05:11:34.396Z,21.48
2022-12-11T05:13:06.481Z,20.98
2022-12-11T05:14:38.599Z,23.13
2022-12-11T05:17:45.852Z,22.92
2022-12-11T05:19:17.895Z,23.65
2022-12-11T05:21:02.235Z,24.23
2022-12-11T05:22:34.232Z,29.02
2022-12-11T05:24:06.638Z,26.83
2022-12-11T05:25:38.613Z,27.05
2022-12-11T05:27:13.722Z,25.25
2022-12-11T05:28:46.235Z,26.63
2022-12-11T05:30:18.268Z,25.83
2022-12-11T05:31:50.280Z,26.35
2022-12-11T05:33:22.396Z,29.73
2022-12-11T05:34:54.463Z,29.00
2022-12-11T05:36:29.500Z,34.30
2022-12-11T05:38:01.827Z,33.80
2022-12-11T05:39:33.897Z,32.80
2022-12-11T05:41:07.187Z,30.95
2022-12-11T05:42:39.207Z,25.38
2022-12-11T05:44:13.613Z,28.08
2022-12-11T05:45:45.673Z,24.77
2022-12-11T05:47:20.537Z,24.67
2022-12-11T05:48:56.041Z,19.50
2022-12-11T05:50:31.086Z,27.73
2022-12-11T05:52:03.143Z,28.08
2022-12-11T05:53:36.781Z,29.02
2022-12-11T05:55:10.052Z,30.60
2022-12-11T05:56:42.417Z,28.00
2022-12-11T05:58:14.508Z,28.52
2022-12-11T05:59:46.553Z,28.77
2022-12-11T06:01:21.375Z,27.67
2022-12-11T06:02:53.541Z,28.60
2022-12-11T06:04:25.573Z,31.88
2022-12-11T06:05:57.538Z,35.60
2022-12-11T06:07:29.648Z,33.08
2022-12-11T06:09:02.379Z,35.50
2022-12-11T06:10:34.984Z,42.25
2022-12-11T06:12:07.183Z,36.90
2022-12-11T06:13:39.230Z,37.80
2022-12-11T06:15:11.680Z,45.03
2022-12-11T06:16:43.863Z,35.50
2022-12-11T06:18:15.886Z,59.13
2022-12-11T06:19:47.966Z,58.90
2022-12-11T06:21:22.694Z,49.47
2022-12-11T06:22:54.670Z,36.17
2022-12-11T06:24:26.816Z,31.98
2022-12-11T06:25:58.962Z,25.25
2022-12-11T06:27:31.369Z,32.83
2022-12-11T06:29:08.864Z,36.55
2022-12-11T06:30:42.910Z,45.58
2022-12-11T06:32:15.003Z,41.33
2022-12-11T06:33:47.638Z,47.13
2022-12-11T06:35:19.571Z,43.30
2022-12-11T06:36:51.718Z,49.72
2022-12-11T06:38:24.103Z,41.22
2022-12-11T06:39:56.091Z,41.42
2022-12-11T06:41:28.122Z,49.50
2022-12-11T06:43:00.248Z,61.90
2022-12-11T06:44:32.225Z,55.85
2022-12-11T06:46:05.801Z,58.92
2022-12-11T06:47:37.876Z,68.30
2022-12-11T06:49:09.849Z,67.25
2022-12-11T06:50:41.864Z,62.35
2022-12-11T06:52:18.352Z,56.35
2022-12-11T06:53:55.500Z,58.22
2022-12-11T06:55:27.542Z,63.80
2022-12-11T06:56:59.618Z,57.83
2022-12-11T06:58:31.943Z,55.03
2022-12-11T07:00:04.786Z,51.58
2022-12-11T07:01:36.778Z,41.35
2022-12-11T07:03:10.419Z,55.80
2022-12-11T07:04:42.810Z,51.83
2022-12-11T07:06:15.593Z,53.17
2022-12-11T07:07:47.862Z,47.72
2022-12-11T07:09:20.237Z,50.83
2022-12-11T07:10:52.251Z,48.95
2022-12-11T07:12:24.351Z,47.28
2022-12-11T07:13:59.790Z,39.83
2022-12-11T07:15:33.575Z,48.85
2022-12-11T07:17:07.354Z,40.78
2022-12-11T07:18:41.025Z,37.00
2022-12-11T07:20:13.091Z,39.92
2022-12-11T07:21:45.084Z,36.35
2022-12-11T07:23:17.144Z,40.42
2022-12-11T07:24:49.273Z,41.25
2022-12-11T07:26:22.423Z,42.83
2022-12-11T07:27:54.369Z,38.78
2022-12-11T07:29:26.408Z,27.20
2022-12-11T07:30:58.336Z,18.58
2022-12-11T07:32:30.507Z,15.13
2022-12-11T07:34:05.698Z,14.70
2022-12-11T07:35:38.220Z,16.70
2022-12-11T07:37:10.241Z,12.97
2022-12-11T07:38:42.305Z,15.07
2022-12-11T07:40:14.626Z,13.50
2022-12-11T07:41:47.432Z,14.55
2022-12-11T07:43:19.585Z,14.32
2022-12-11T07:44:51.706Z,13.52
2022-12-11T07:46:27.062Z,12.00
2022-12-11T07:47:59.454Z,12.80
2022-12-11T07:49:33.532Z,13.05
2022-12-11T07:51:28.217Z,14.38
2022-12-11T07:53:00.257Z,11.82
2022-12-11T07:54:32.290Z,14.00
2022-12-11T07:56:04.865Z,13.40
2022-12-11T07:57:37.183Z,12.70
2022-12-11T07:59:09.185Z,12.75
2022-12-11T08:00:41.208Z,13.80
2022-12-11T08:02:13.287Z,15.07
2022-12-11T08:03:46.091Z,13.98
2022-12-11T08:05:18.400Z,13.73
2022-12-11T08:06:50.397Z,13.95
2022-12-11T08:08:22.579Z,13.90
2022-12-11T08:09:54.679Z,13.77
2022-12-11T08:11:27.064Z,13.52
2022-12-11T08:12:59.020Z,14.07
2022-12-11T08:14:31.056Z,13.38
2022-12-11T08:16:08.131Z,13.65
2022-12-11T08:17:40.430Z,15.48
2022-12-11T08:19:13.061Z,15.00
2022-12-11T08:20:45.168Z,14.88
2022-12-11T08:22:17.260Z,15.23
2022-12-11T08:23:49.851Z,15.48
2022-12-11T08:25:21.832Z,17.70
2022-12-11T08:26:54.137Z,14.80
2022-12-11T08:28:27.313Z,15.68
2022-12-11T08:29:59.520Z,15.13
2022-12-11T08:31:31.812Z,16.42
2022-12-11T08:33:03.875Z,16.35
2022-12-11T08:34:35.951Z,17.25
2022-12-11T08:36:10.992Z,16.60
2022-12-11T08:37:43.025Z,14.90
2022-12-11T08:39:15.286Z,17.50
2022-12-11T08:40:47.378Z,18.45
2022-12-11T08:42:19.412Z,17.10
2022-12-11T08:43:55.513Z,17.77
2022-12-11T08:45:27.644Z,17.60
2022-12-11T08:46:59.623Z,20.23
2022-12-11T08:48:31.735Z,16.23
2022-12-11T08:50:04.663Z,18.45
2022-12-11T08:51:36.638Z,17.60
2022-12-11T08:53:08.655Z,19.25
2022-12-11T08:56:20.952Z,16.48
2022-12-11T08:57:53.012Z,18.05
2022-12-11T08:59:25.952Z,17.65
2022-12-11T09:00:58.262Z,17.95
2022-12-11T09:02:30.333Z,17.30
2022-12-11T09:04:02.583Z,16.77
2022-12-11T09:05:35.341Z,17.95
2022-12-11T09:07:07.388Z,17.65
2022-12-11T09:08:39.628Z,19.23
2022-12-11T09:10:11.779Z,18.60
2022-12-11T09:11:43.941Z,19.17
2022-12-11T09:13:15.958Z,17.45
2022-12-11T09:14:48.171Z,20.67
2022-12-11T09:16:22.748Z,18.58
2022-12-11T09:17:54.722Z,16.20
2022-12-11T09:19:31.908Z,16.70
2022-12-11T09:21:09.788Z,19.05
2022-12-11T09:22:43.154Z,18.55
2022-12-11T09:24:15.889Z,18.10
2022-12-11T09:25:48.395Z,18.20
2022-12-11T09:27:21.690Z,20.92
2022-12-11T09:28:55.115Z,18.92
2022-12-11T09:30:27.778Z,17.33
2022-12-11T09:31:59.902Z,17.35
2022-12-11T09:33:31.909Z,20.67
2022-12-11T09:35:04.137Z,16.20
2022-12-11T09:36:36.379Z,17.83
2022-12-11T09:38:08.408Z,17.05
2022-12-11T09:39:40.434Z,19.40
2022-12-11T09:41:39.666Z,19.33
2022-12-11T09:43:30.475Z,22.77
2022-12-11T09:45:04.895Z,17.52
2022-12-11T09:46:39.779Z,15.38
2022-12-11T09:48:13.024Z,15.27
2022-12-11T09:49:45.759Z,16.70
2022-12-11T09:51:40.745Z,16.85
2022-12-11T09:53:22.588Z,17.15
2022-12-11T09:55:00.541Z,14.93
2022-12-11T09:56:50.979Z,17.23
2022-12-11T09:58:31.755Z,17.75
2022-12-11T10:00:28.527Z,17.15
2022-12-11T10:02:15.995Z,17.55
2022-12-11T10:04:13.402Z,18.00
2022-12-11T10:06:08.405Z,16.15
2022-12-11T10:08:04.129Z,15.75
2022-12-11T10:10:04.254Z,15.27
2022-12-11T10:12:03.699Z,14.90
2022-12-11T10:13:47.603Z,18.75
2022-12-11T10:15:40.760Z,15.05
2022-12-11T10:17:13.883Z,14.43
2022-12-11T10:18:46.907Z,9.90
2022-12-11T10:20:31.545Z,9.50
2022-12-11T10:22:03.891Z,9.23
2022-12-11T10:25:33.336Z,9.65
2022-12-11T10:27:20.312Z,6.10
2022-12-11T10:28:52.416Z,6.63
2022-12-11T10:30:34.515Z,6.57
2022-12-11T10:32:16.412Z,6.38
2022-12-11T10:34:02.873Z,5.88
2022-12-11T10:36:01.038Z,5.10
2022-12-11T10:37:33.488Z,6.63
2022-12-11T10:39:26.096Z,7.13
2022-12-11T10:41:04.589Z,6.65
2022-12-11T10:42:41.284Z,5.72
2022-12-11T10:44:29.888Z,7.40
2022-12-11T10:46:02.211Z,8.18
2022-12-11T10:47:34.475Z,6.35
2022-12-11T10:49:06.498Z,7.78
2022-12-11T10:50:38.901Z,7.20
2022-12-11T10:52:13.725Z,7.72
2022-12-11T10:53:58.719Z,7.55
2022-12-11T10:55:48.851Z,7.07
2022-12-11T10:58:53.880Z,8.70
2022-12-11T11:00:41.924Z,8.60
2022-12-11T11:02:36.237Z,7.65
2022-12-11T11:04:16.418Z,8.13
2022-12-11T11:05:49.623Z,8.40
2022-12-11T11:07:29.205Z,7.22
2022-12-11T11:09:02.031Z,7.78
2022-12-11T11:10:34.093Z,7.32
2022-12-11T11:12:25.019Z,7.38
2022-12-11T11:14:08.954Z,7.78
2022-12-11T11:17:17.460Z,8.02
2022-12-11T11:18:55.008Z,7.65
2022-12-11T11:20:29.646Z,7.82
2022-12-11T11:22:06.244Z,9.07
2022-12-11T11:23:45.476Z,8.90
2022-12-11T11:25:22.109Z,6.90
2022-12-11T11:27:12.698Z,8.07
2022-12-11T11:28:50.324Z,10.52
2022-12-11T11:30:29.297Z,8.52
2022-12-11T11:33:35.737Z,7.97
2022-12-11T11:35:13.938Z,7.00
2022-12-11T11:36:56.618Z,9.07
2022-12-11T11:38:34.769Z,7.28
2022-12-11T11:40:15.736Z,7.15
2022-12-11T11:41:59.147Z,7.20
2022-12-11T11:43:41.171Z,8.32
2022-12-11T11:45:17.485Z,9.02
2022-12-11T11:47:04.362Z,7.93
2022-12-11T11:48:39.190Z,11.40
2022-12-11T11:50:18.500Z,11.50
2022-12-11T11:52:01.552Z,7.15
2022-12-11T11:53:38.419Z,8.23
2022-12-11T11:55:22.597Z,7.32
2022-12-11T11:56:56.645Z,4.80
2022-12-11T11:58:38.921Z,7.53
2022-12-11T12:00:27.587Z,5.38
2022-12-11T12:02:14.635Z,5.45
2022-12-11T12:03:48.597Z,7.53
2022-12-11T12:05:56.019Z,5.47
2022-12-11T12:07:43.703Z,6.40
2022-12-11T12:09:38.422Z,7.47
2022-12-11T12:11:23.009Z,8.73
2022-12-11T12:13:23.891Z,7.75
2022-12-11T12:15:22.254Z,5.57
2022-12-11T12:17:10.013Z,6.80
2022-12-11T12:18:44.673Z,8.15
2022-12-11T12:20:34.866Z,6.40
2022-12-11T12:22:31.656Z,5.95
2022-12-11T12:24:06.907Z,6.53
2022-12-11T12:25:43.104Z,7.45
2022-12-11T12:27:54.521Z,6.50
2022-12-11T12:29:56.112Z,6.93
2022-12-11T12:33:26.149Z,6.05
2022-12-11T12:35:03.795Z,6.43
2022-12-11T12:36:44.647Z,6.93
2022-12-11T12:38:35.551Z,6.45
2022-12-11T12:40:28.915Z,8.38
2022-12-11T12:42:44.247Z,7.53
2022-12-11T12:44:18.584Z,7.50
2022-12-11T12:46:00.659Z,13.48
2022-12-11T12:47:34.099Z,7.50
2022-12-11T12:49:12.796Z,8.73
2022-12-11T12:50:48.269Z,8.93
2022-12-11T12:52:39.626Z,7.05
2022-12-11T12:54:15.066Z,7.00
2022-12-11T12:55:48.755Z,8.40
2022-12-11T12:57:21.825Z,8.65
2022-12-11T12:58:53.910Z,7.35
2022-12-11T13:00:40.636Z,8.88
2022-12-11T13:02:14.524Z,7.72
2022-12-11T13:03:55.665Z,6.78
2022-12-11T13:05:30.232Z,8.27
2022-12-11T13:07:24.862Z,9.07
2022-12-11T13:08:56.959Z,11.30
2022-12-11T13:10:34.500Z,8.52
2022-12-11T13:12:15.043Z,7.75
2022-12-11T13:14:08.919Z,7.30
2022-12-11T13:15:45.343Z,8.02
2022-12-11T13:17:23.445Z,7.50
2022-12-11T13:18:55.388Z,8.20
2022-12-11T13:20:30.049Z,8.25
2022-12-11T13:22:22.018Z,7.80
2022-12-11T13:23:54.305Z,8.18
2022-12-11T13:25:29.516Z,11.23
2022-12-11T13:27:12.762Z,8.18
2022-12-11T13:28:44.925Z,9.15
2022-12-11T13:30:19.817Z,8.93
2022-12-11T13:31:59.518Z,10.13
2022-12-11T13:33:32.770Z,9.80
2022-12-11T13:35:06.873Z,9.45
2022-12-11T13:36:40.503Z,10.52
2022-12-11T13:38:17.853Z,11.15
2022-12-11T13:39:49.946Z,10.50
2022-12-11T13:41:22.044Z,9.98
2022-12-11T13:43:05.723Z,10.02
2022-12-11T13:44:41.031Z,9.25
2022-12-11T13:46:16.447Z,9.13
2022-12-11T13:47:48.621Z,8.43
2022-12-11T13:49:26.833Z,9.63
2022-12-11T13:50:59.717Z,8.93
2022-12-11T13:52:32.990Z,9.18
2022-12-11T13:54:20.005Z,13.55
2022-12-11T13:56:02.377Z,9.95
2022-12-11T13:57:34.419Z,9.93
2022-12-11T13:59:06.599Z,9.98
2022-12-11T14:00:38.669Z,11.00
2022-12-11T14:02:36.124Z,9.25
2022-12-11T14:04:14.396Z,10.55
2022-12-11T14:05:46.473Z,10.60
2022-12-11T14:07:37.058Z,9.93
2022-12-11T14:09:09.329Z,11.52
2022-12-11T14:10:41.420Z,12.90
2022-12-11T14:12:19.562Z,12.00
2022-12-11T14:13:51.567Z,15.13
2022-12-11T14:15:24.044Z,13.32
2022-12-11T14:16:56.310Z,11.55
2022-12-11T14:18:31.106Z,13.95
2022-12-11T14:20:08.512Z,12.95
2022-12-11T14:21:40.630Z,12.07
2022-12-11T14:23:22.836Z,10.63
2022-12-11T14:24:57.849Z,11.05
2022-12-11T14:26:32.615Z,9.88
2022-12-11T14:28:04.803Z,9.77
2022-12-11T14:29:36.889Z,8.25
2022-12-11T14:31:09.563Z,9.77
2022-12-11T14:32:45.010Z,7.68
2022-12-11T14:34:25.671Z,7.97
2022-12-11T14:35:58.233Z,8.55
2022-12-11T14:37:30.628Z,9.32
2022-12-11T14:40:54.030Z,7.13
2022-12-11T14:42:31.658Z,8.27
2022-12-11T14:44:05.719Z,7.47
2022-12-11T14:45:41.331Z,7.75
2022-12-11T14:47:26.347Z,7.45
2022-12-11T14:49:02.928Z,16.38
2022-12-11T14:50:47.819Z,13.13
2022-12-11T14:52:27.892Z,8.93
2022-12-11T14:54:00.281Z,8.35
2022-12-11T14:55:35.440Z,8.30
2022-12-11T14:57:08.252Z,9.85
2022-12-11T14:58:45.861Z,7.22
2022-12-11T15:00:29.532Z,7.78
2022-12-11T15:02:24.825Z,6.35
2022-12-11T15:04:20.634Z,5.50
2022-12-11T15:05:58.184Z,6.40
2022-12-11T15:07:30.199Z,6.72
2022-12-11T15:15:33.586Z,26.38
2022-12-11T15:17:13.009Z,12.50
2022-12-11T15:18:49.272Z,10.93
2022-12-11T15:20:31.447Z,12.05
2022-12-11T15:22:05.082Z,8.00
2022-12-11T15:25:29.172Z,5.93
2022-12-11T15:27:01.621Z,6.72
2022-12-11T15:28:38.298Z,3.78
2022-12-11T15:30:28.659Z,4.78
2022-12-11T15:32:11.259Z,5.13
2022-12-11T15:33:48.184Z,4.43
2022-12-11T15:35:24.362Z,4.47
2022-12-11T15:36:56.425Z,5.53
2022-12-11T15:38:31.701Z,13.65
2022-12-11T15:40:05.724Z,23.67
2022-12-11T15:41:40.587Z,9.43
2022-12-11T15:43:12.577Z,8.40
2022-12-11T15:44:44.812Z,7.18
2022-12-11T15:46:19.751Z,7.25
2022-12-11T15:47:52.977Z,7.57
2022-12-11T15:49:25.086Z,7.10
2022-12-11T15:50:57.465Z,6.60
2022-12-11T15:52:29.565Z,6.07
2022-12-11T15:54:01.523Z,6.90
2022-12-11T15:55:35.354Z,5.88
2022-12-11T15:57:14.876Z,5.90
2022-12-11T15:58:51.953Z,5.50
2022-12-11T16:00:24.395Z,4.95
2022-12-11T16:01:56.467Z,5.43
2022-12-11T16:03:28.530Z,7.65
2022-12-11T16:05:00.511Z,5.68
2022-12-11T16:06:35.580Z,6.82
2022-12-11T16:08:08.239Z,5.00
2022-12-11T16:09:40.446Z,6.35
2022-12-11T16:11:14.068Z,6.18
2022-12-11T16:14:18.051Z,6.20
2022-12-11T16:15:51.777Z,8.25
2022-12-11T16:17:24.051Z,6.38
2022-12-11T16:18:56.138Z,7.60
2022-12-11T16:20:28.550Z,6.22
2022-12-11T16:22:00.774Z,5.95
2022-12-11T16:23:32.840Z,7.20
2022-12-11T16:25:05.314Z,15.13
2022-12-11T16:26:37.302Z,10.80
2022-12-11T16:28:09.786Z,12.02
2022-12-11T16:29:42.326Z,7.75
2022-12-11T16:31:15.449Z,7.95
2022-12-11T16:32:47.523Z,8.73
2022-12-11T16:34:19.645Z,7.93
2022-12-11T16:35:52.668Z,6.53
2022-12-11T16:37:24.743Z,8.43
2022-12-11T16:38:57.144Z,7.88
2022-12-11T16:40:29.253Z,6.00
2022-12-11T16:42:01.314Z,7.97
2022-12-11T16:43:33.550Z,6.90
2022-12-11T16:45:08.892Z,7.65
2022-12-11T16:46:41.168Z,5.78
2022-12-11T16:48:13.183Z,7.47
2022-12-11T16:49:45.571Z,6.53
2022-12-11T16:51:18.301Z,5.05
2022-12-11T16:52:50.426Z,6.03
2022-12-11T16:54:22.440Z,9.32
2022-12-11T16:55:54.509Z,8.82
2022-12-11T16:57:26.640Z,9.82
2022-12-11T16:58:58.681Z,11.75
2022-12-11T17:00:30.597Z,11.30
2022-12-11T17:02:02.556Z,7.38
2022-12-11T17:03:34.562Z,6.28
2022-12-11T17:05:06.785Z,7.82
2022-12-11T17:06:38.840Z,9.38
2022-12-11T17:08:10.907Z,5.70
2022-12-11T17:09:43.387Z,7.25
2022-12-11T17:11:18.133Z,6.20
2022-12-11T17:12:50.133Z,6.07
2022-12-11T17:14:22.141Z,6.53
2022-12-11T17:15:54.206Z,7.07
2022-12-11T17:17:26.498Z,7.75
2022-12-11T17:18:58.714Z,6.90
2022-12-11T17:20:30.809Z,7.40
2022-12-11T17:22:03.051Z,7.30
2022-12-11T17:23:35.832Z,8.52
2022-12-11T17:25:08.220Z,9.25
2022-12-11T17:26:41.810Z,10.48
2022-12-11T17:29:46.201Z,8.30
2022-12-11T17:31:19.314Z,8.25
2022-12-11T17:34:24.239Z,8.35
2022-12-11T17:35:56.442Z,9.68
2022-12-11T17:37:28.427Z,9.35
2022-12-11T17:39:00.549Z,12.98
2022-12-11T17:40:32.623Z,10.23
2022-12-11T17:42:04.828Z,9.60
2022-12-11T17:43:37.036Z,10.15
2022-12-11T17:45:09.516Z,10.65
2022-12-11T17:46:41.835Z,10.20
2022-12-11T17:48:15.106Z,10.43
2022-12-11T17:49:47.311Z,10.18
2022-12-11T17:51:24.742Z,12.55
2022-12-11T17:52:58.006Z,11.18
2022-12-11T17:54:30.047Z,13.43
2022-12-11T17:56:03.974Z,11.40
2022-12-11T17:57:38.298Z,13.25
2022-12-11T17:59:10.417Z,11.82
2022-12-11T18:00:44.835Z,13.88
2022-12-11T18:02:19.957Z,13.93
2022-12-11T18:03:52.068Z,13.35
2022-12-11T18:05:25.522Z,13.52
2022-12-11T18:06:57.505Z,15.38
2022-12-11T18:08:30.513Z,12.13
2022-12-11T18:10:02.726Z,14.30
2022-12-11T18:11:35.193Z,15.43
2022-12-11T18:13:07.508Z,15.13
2022-12-11T18:14:39.692Z,15.23
2022-12-11T18:16:19.897Z,15.00
2022-12-11T18:17:52.061Z,14.13
2022-12-11T18:19:25.688Z,14.40
2022-12-11T18:20:57.803Z,15.57
2022-12-11T18:22:29.891Z,14.07
2022-12-11T18:24:02.499Z,13.25
2022-12-11T18:25:34.687Z,16.00
2022-12-11T18:27:10.592Z,13.68
2022-12-11T18:28:43.034Z,16.88
2022-12-11T18:30:15.380Z,14.27
2022-12-11T18:31:47.550Z,14.55
2022-12-11T18:33:19.705Z,13.18
2022-12-11T18:34:51.792Z,13.55
2022-12-11T18:36:23.872Z,12.10
2022-12-11T18:37:56.141Z,15.75
2022-12-11T18:39:28.154Z,14.45
2022-12-11T18:41:04.273Z,11.80
2022-12-11T18:42:36.512Z,12.85
2022-12-11T18:44:10.138Z,15.23
2022-12-11T18:45:45.527Z,11.75
2022-12-11T18:49:02.264Z,9.98
2022-12-11T18:50:35.112Z,11.40
2022-12-11T18:52:07.271Z,9.68
2022-12-11T18:53:41.161Z,10.55
2022-12-11T18:55:13.292Z,8.93
2022-12-11T18:56:48.407Z,8.85
2022-12-11T18:58:20.910Z,9.30
2022-12-11T18:59:53.763Z,9.27
2022-12-11T19:01:29.157Z,10.13
2022-12-11T19:03:02.414Z,10.10
2022-12-11T19:04:36.521Z,9.02
2022-12-11T19:06:15.043Z,10.52
2022-12-11T19:07:47.128Z,11.70
2022-12-11T19:09:19.269Z,10.25
2022-12-11T19:10:53.784Z,10.98
2022-12-11T19:12:25.967Z,10.18
2022-12-11T19:13:58.413Z,11.57
2022-12-11T19:15:30.411Z,11.27
2022-12-11T19:17:03.496Z,11.35
2022-12-11T19:18:37.802Z,12.35
2022-12-11T19:20:40.254Z,11.65
2022-12-11T19:22:02.682Z,13.55
2022-12-11T19:23:34.712Z,13.45
2022-12-11T19:25:07.537Z,12.50
2022-12-11T19:26:39.645Z,12.75
2022-12-11T19:28:12.002Z,15.23
2022-12-11T19:29:44.085Z,14.65
2022-12-11T19:31:21.246Z,15.10
2022-12-11T19:32:53.213Z,13.65
2022-12-11T19:34:25.571Z,14.95
2022-12-11T19:36:05.595Z,13.45
2022-12-11T19:37:37.581Z,14.63
2022-12-11T19:39:13.193Z,15.85
2022-12-11T19:40:45.851Z,16.05
2022-12-11T19:42:20.167Z,15.45
2022-12-11T19:43:52.167Z,13.60
2022-12-11T19:45:24.130Z,14.32
2022-12-11T19:46:56.202Z,14.68
2022-12-11T19:48:30.744Z,13.60
2022-12-11T19:50:02.814Z,12.55
2022-12-11T19:51:38.803Z,14.65
2022-12-11T19:53:10.916Z,13.35
2022-12-11T19:54:42.933Z,13.32
2022-12-11T19:56:15.691Z,12.05
2022-12-11T19:57:48.056Z,12.50
2022-12-11T19:59:20.069Z,14.65
2022-12-11T20:00:52.223Z,12.98
2022-12-11T20:02:24.344Z,12.95
2022-12-11T20:03:58.858Z,14.57
2022-12-11T20:05:30.876Z,13.48
2022-12-11T20:07:02.997Z,11.93
2022-12-11T20:08:44.519Z,12.88
2022-12-11T20:10:17.546Z,12.90
2022-12-11T20:11:49.751Z,13.35
2022-12-11T20:13:21.947Z,13.63
2022-12-11T20:14:53.928Z,13.85
2022-12-11T20:16:46.379Z,11.60
2022-12-11T20:18:18.818Z,14.68
2022-12-11T20:19:51.977Z,15.18
2022-12-11T20:23:01.256Z,13.73
2022-12-11T20:24:33.583Z,15.05
2022-12-11T20:26:11.033Z,13.98
2022-12-11T20:27:43.226Z,12.35
2022-12-11T20:29:15.488Z,12.25
2022-12-11T20:30:49.065Z,14.07
2022-12-11T20:33:54.019Z,12.43
2022-12-11T20:35:26.950Z,13.00
2022-12-11T20:37:00.552Z,11.50
2022-12-11T20:38:34.549Z,13.10
2022-12-11T20:40:07.620Z,12.32
2022-12-11T20:41:39.832Z,12.20
2022-12-11T20:43:11.856Z,13.68
2022-12-11T20:44:48.740Z,12.60
2022-12-11T20:46:23.814Z,11.80
2022-12-11T20:47:55.742Z,11.10
2022-12-11T20:49:27.851Z,12.55
2022-12-11T20:52:31.707Z,11.90
2022-12-11T20:54:03.860Z,13.13
2022-12-11T20:55:42.439Z,12.88
2022-12-11T20:57:16.646Z,13.90
2022-12-11T20:58:48.710Z,11.40
2022-12-11T21:00:20.912Z,12.55
2022-12-11T21:01:53.087Z,12.38
2022-12-11T21:03:25.253Z,11.75
2022-12-11T21:04:58.063Z,12.30
2022-12-11T21:06:33.963Z,11.88
2022-12-11T21:08:06.296Z,13.60
2022-12-11T21:09:39.116Z,13.55
2022-12-11T21:11:11.174Z,12.80
2022-12-11T21:12:43.299Z,12.73
2022-12-11T21:14:16.620Z,12.05
2022-12-11T21:15:52.875Z,14.18
2022-12-11T21:17:24.910Z,13.55
2022-12-11T21:18:57.795Z,12.95
2022-12-11T21:20:29.826Z,12.65